Search for airport 
image banner adimage banner adimage banner ad
image banner ad

4PN0 - Flying M Ranch

Located in Grove City, United States

ICAO - 4PN0, IATA -

Data provided by Airmate  

General information

Coordinates: N41°12'59" W80°5'37"
Elevation is 1348 feet MSL.
Magnetic variation is -08° East
View others Airports in Pennsylvania

Operational data

Special qualification required
Current time UTC:
Current local time:
Weather at : KFKL - Venango Rgnl ( 26 km )
METAR: KFKL 071356Z AUTO 00000KT 10SM -RA FEW006 SCT017 OVC029 04/03 A2990 RMK AO2 SLP134 P0005 T00440033
TAF: KFKL 071133Z 0712/0812 36004KT 5SM -SHRA OVC020 FM071300 31004KT 3SM -SHRA OVC010 FM072000 31007KT P6SM BKN015 FM072300 31007KT P6SM BKN025 FM080600 00000KT P6SM VCSH BKN025
View NOTAMs / SUP AIP / TFR affecting this airport [VIEW]
Communications frequencies: [VIEW]

Runways:

RWY identifierQFULength (ft)Width (ft)SurfaceLDA (ft)
092000100GRASS
272000100GRASS

Airport contact information

Address: Grove City United States

Satellite view of 4PN0